< < Back
Terminal Aerodrome Forecast


Current Version              Previous Versions:   1  2  3  4  5  6  7  8  9  

Terminal Aerodrome Forecast

653
FTUS42 KTAE 281720
TAFDHN
TAF
KDHN 281720Z 2818/2918 23010KT P6SM SCT070
     FM290200 VRB04KT P6SM SCT250=

Latest METAR

254
SAUS70 KWBC 291200 RRH
MTRDHN
METAR KDHN 291153Z 24004KT 10SM CLR 26/24 A3009 RMK AO2 SLP182 T02560239
10256 20239 53007


USA.gov is the U.S. government's official web portal to all federal, state and local government web resources and services.